createdAt,value
2023-04-04T00:03:07.107Z,1.92
2023-04-04T00:08:12.156Z,1.90
2023-04-04T00:13:15.732Z,1.80
2023-04-04T00:18:19.269Z,2.20
2023-04-04T00:23:24.057Z,1.90
2023-04-04T00:28:27.471Z,1.77
2023-04-04T00:33:30.987Z,1.90
2023-04-04T00:38:35.882Z,2.10
2023-04-04T00:43:39.811Z,2.58
2023-04-04T00:48:43.666Z,1.55
2023-04-04T00:53:49.119Z,1.90
2023-04-04T00:58:52.898Z,2.08
2023-04-04T01:03:56.479Z,1.92
2023-04-04T01:09:01.653Z,1.90
2023-04-04T01:14:05.585Z,1.67
2023-04-04T01:19:15.536Z,2.05
2023-04-04T01:24:22.753Z,2.00
2023-04-04T01:29:35.347Z,1.55
2023-04-04T01:34:45.785Z,1.83
2023-04-04T01:39:54.702Z,1.90
2023-04-04T01:44:59.806Z,2.30
2023-04-04T01:50:11.269Z,1.73
2023-04-04T01:55:17.182Z,2.05
2023-04-04T02:00:22.240Z,1.70
2023-04-04T02:05:25.704Z,1.80
2023-04-04T02:10:30.004Z,1.95
2023-04-04T02:15:35.601Z,1.98
2023-04-04T02:20:43.029Z,1.70
2023-04-04T02:25:46.447Z,2.13
2023-04-04T02:30:51.232Z,1.65
2023-04-04T02:35:57.322Z,1.98
2023-04-04T02:41:00.923Z,2.10
2023-04-04T02:46:18.446Z,1.92
2023-04-04T02:51:26.068Z,1.80
2023-04-04T02:56:30.121Z,1.80
2023-04-04T03:01:35.164Z,2.13
2023-04-04T03:06:42.247Z,2.63
2023-04-04T03:11:46.656Z,1.90
2023-04-04T03:16:52.384Z,2.17
2023-04-04T03:21:56.268Z,1.92
2023-04-04T03:27:00.927Z,2.13
2023-04-04T03:32:06.511Z,2.20
2023-04-04T03:37:10.061Z,2.15
2023-04-04T03:42:13.606Z,2.35
2023-04-04T03:47:18.458Z,2.17
2023-04-04T03:52:21.974Z,2.30
2023-04-04T03:57:25.621Z,2.30
2023-04-04T04:02:30.556Z,2.05
2023-04-04T04:07:34.802Z,2.20
2023-04-04T04:12:38.324Z,2.10
2023-04-04T04:17:43.384Z,2.35
2023-04-04T04:22:48.830Z,2.15
2023-04-04T04:27:56.016Z,2.45
2023-04-04T04:33:01.082Z,2.38
2023-04-04T04:38:12.695Z,2.20
2023-04-04T04:43:16.632Z,2.25
2023-04-04T04:48:21.476Z,2.38
2023-04-04T04:53:29.430Z,2.30
2023-04-04T04:58:33.417Z,2.47
2023-04-04T05:03:40.517Z,2.10
2023-04-04T05:08:48.707Z,2.25
2023-04-04T05:13:59.597Z,2.20
2023-04-04T05:19:10.660Z,2.50
2023-04-04T05:24:22.880Z,2.30
2023-04-04T05:29:26.572Z,4.85
2023-04-04T05:34:32.628Z,3.38
2023-04-04T05:39:37.775Z,2.90
2023-04-04T05:44:44.699Z,4.10
2023-04-04T05:49:50.110Z,3.25
2023-04-04T05:54:55.194Z,3.17
2023-04-04T06:00:06.287Z,2.78
2023-04-04T06:05:19.593Z,2.70
2023-04-04T06:10:24.270Z,3.20
2023-04-04T06:15:30.948Z,2.90
2023-04-04T06:20:36.344Z,2.85
2023-04-04T06:25:40.057Z,3.40
2023-04-04T06:30:45.132Z,3.10
2023-04-04T06:35:52.540Z,2.88
2023-04-04T06:40:58.000Z,3.40
2023-04-04T06:46:03.051Z,3.08
2023-04-04T06:51:09.070Z,2.67
2023-04-04T06:56:15.443Z,2.80
2023-04-04T07:01:19.855Z,3.10
2023-04-04T07:06:26.706Z,2.55
2023-04-04T07:11:30.399Z,2.50
2023-04-04T07:16:33.908Z,3.63
2023-04-04T07:21:40.171Z,2.60
2023-04-04T07:26:43.647Z,2.65
2023-04-04T07:31:47.202Z,2.53
2023-04-04T07:36:52.040Z,2.85
2023-04-04T07:41:55.798Z,2.70
2023-04-04T07:47:09.415Z,3.00
2023-04-04T07:52:15.119Z,2.47
2023-04-04T07:57:18.714Z,2.28
2023-04-04T08:02:22.502Z,2.88
2023-04-04T08:07:29.283Z,3.00
2023-04-04T08:12:33.966Z,2.50
2023-04-04T08:17:38.057Z,3.25
2023-04-04T08:22:43.840Z,2.65
2023-04-04T08:27:47.823Z,2.45
2023-04-04T08:32:51.724Z,2.50
2023-04-04T08:37:57.337Z,2.65
2023-04-04T08:43:01.925Z,2.90
2023-04-04T08:48:07.264Z,2.65
2023-04-04T08:53:13.061Z,2.83
2023-04-04T08:58:17.841Z,2.42
2023-04-04T09:03:26.287Z,2.40
2023-04-04T09:08:31.474Z,2.55
2023-04-04T09:13:37.963Z,2.45
2023-04-04T09:18:42.676Z,2.40
2023-04-04T09:23:47.520Z,2.42
2023-04-04T09:28:54.136Z,2.20
2023-04-04T09:33:59.740Z,2.85
2023-04-04T09:39:05.381Z,2.22
2023-04-04T09:44:12.708Z,2.30
2023-04-04T09:49:21.298Z,2.60
2023-04-04T09:54:29.441Z,2.40
2023-04-04T09:59:35.218Z,2.10
2023-04-04T10:04:39.314Z,3.10
2023-04-04T10:09:44.219Z,2.25
2023-04-04T10:14:48.914Z,2.35
2023-04-04T10:19:53.843Z,2.20
2023-04-04T10:24:59.339Z,2.13
2023-04-04T10:30:03.624Z,2.58
2023-04-04T10:35:11.207Z,2.47
2023-04-04T10:40:19.698Z,2.30
2023-04-04T10:45:23.342Z,2.13
2023-04-04T10:50:28.311Z,2.22
2023-04-04T10:55:35.520Z,3.00
2023-04-04T11:00:52.230Z,2.53
2023-04-04T11:06:00.554Z,2.20
2023-04-04T11:11:16.100Z,2.38
2023-04-04T11:16:26.091Z,2.50
2023-04-04T11:21:33.710Z,2.60
2023-04-04T11:26:39.744Z,2.60
2023-04-04T11:31:46.298Z,2.53
2023-04-04T11:36:51.968Z,2.58
2023-04-04T11:41:58.860Z,2.30
2023-04-04T11:47:05.234Z,2.40
2023-04-04T11:52:10.890Z,2.38
2023-04-04T11:57:17.617Z,2.40
2023-04-04T12:02:24.852Z,2.15
2023-04-04T12:07:30.234Z,1.98
2023-04-04T12:12:38.793Z,2.50
2023-04-04T12:17:44.076Z,2.40
2023-04-04T12:22:50.950Z,2.38
2023-04-04T12:27:56.577Z,2.00
2023-04-04T12:33:00.635Z,2.33
2023-04-04T12:38:07.381Z,2.55
2023-04-04T12:43:18.741Z,1.90
2023-04-04T12:48:28.753Z,2.15
2023-04-04T12:53:33.328Z,1.90
2023-04-04T12:58:38.215Z,1.95
2023-04-04T13:03:42.645Z,1.90
2023-04-04T13:08:53.533Z,2.03
2023-04-04T13:14:05.840Z,1.80
2023-04-04T13:19:09.320Z,2.20
2023-04-04T13:24:12.910Z,2.50
2023-04-04T13:29:17.841Z,1.90
2023-04-04T13:34:24.023Z,2.08
2023-04-04T13:39:27.549Z,1.80
2023-04-04T13:44:32.572Z,2.00
2023-04-04T13:49:36.545Z,1.70
2023-04-04T13:54:40.004Z,1.77
2023-04-04T13:59:44.897Z,2.58
2023-04-04T14:04:48.374Z,2.30
2023-04-04T14:09:51.955Z,2.08
2023-04-04T14:14:57.034Z,2.30
2023-04-04T14:20:00.651Z,2.03
2023-04-04T14:25:04.948Z,2.65
2023-04-04T14:30:10.917Z,2.30
2023-04-04T14:35:15.279Z,2.30
2023-04-04T14:40:18.945Z,2.03
2023-04-04T14:45:23.977Z,2.00
2023-04-04T14:50:27.555Z,2.22
2023-04-04T14:55:31.198Z,2.08
2023-04-04T15:00:36.118Z,1.98
2023-04-04T15:05:41.889Z,1.98
2023-04-04T15:10:46.286Z,2.25
2023-04-04T15:15:51.189Z,2.58
2023-04-04T15:20:54.848Z,2.47
2023-04-04T15:25:58.784Z,2.42
2023-04-04T15:31:03.749Z,2.33
2023-04-04T15:36:08.606Z,1.90
2023-04-04T15:41:12.231Z,2.35
2023-04-04T15:46:17.322Z,2.35
2023-04-04T15:51:21.547Z,2.53
2023-04-04T15:56:25.132Z,2.60
2023-04-04T16:01:30.096Z,2.30
2023-04-04T16:06:33.633Z,2.25
2023-04-04T16:11:39.274Z,2.28
2023-04-04T16:16:44.819Z,2.53
2023-04-04T16:21:49.380Z,2.20
2023-04-04T16:26:52.965Z,2.55
2023-04-04T16:31:57.845Z,1.80
2023-04-04T16:37:01.483Z,2.30
2023-04-04T16:42:05.251Z,2.35
2023-04-04T16:47:11.033Z,2.33
2023-04-04T16:52:16.227Z,2.45
2023-04-04T16:57:19.890Z,2.45
2023-04-04T17:02:24.848Z,2.03
2023-04-04T17:07:28.403Z,2.65
2023-04-04T17:12:31.989Z,2.20
2023-04-04T17:17:36.894Z,2.47
2023-04-04T17:22:40.459Z,2.13
2023-04-04T17:27:44.200Z,2.60
2023-04-04T17:32:49.025Z,2.70
2023-04-04T17:37:53.077Z,2.40
2023-04-04T17:42:56.603Z,2.53
2023-04-04T17:48:01.646Z,2.40
2023-04-04T17:53:05.381Z,2.67
2023-04-04T17:58:09.036Z,2.50
2023-04-04T18:03:14.639Z,2.47
2023-04-04T18:08:18.402Z,3.00
2023-04-04T18:13:22.007Z,2.63
2023-04-04T18:18:26.889Z,2.65
2023-04-04T18:28:58.057Z,2.95
2023-04-04T18:34:03.559Z,3.22
2023-04-04T18:39:07.078Z,2.72
2023-04-04T18:44:10.647Z,3.25
2023-04-04T18:49:15.597Z,2.95
2023-04-04T18:54:19.238Z,3.45
2023-04-04T18:59:24.358Z,3.30
2023-04-04T19:04:30.560Z,2.85
2023-04-04T19:09:34.473Z,3.70
2023-04-04T19:14:38.021Z,3.50
2023-04-04T19:19:43.405Z,3.10
2023-04-04T19:24:47.029Z,3.15
2023-04-04T19:29:50.806Z,3.60
2023-04-04T19:34:56.419Z,3.63
2023-04-04T19:40:00.120Z,3.80
2023-04-04T19:45:13.684Z,3.83
2023-04-04T19:50:38.092Z,3.65
2023-04-04T19:55:42.063Z,3.95
2023-04-04T20:00:46.634Z,4.75
2023-04-04T20:06:06.102Z,3.83
2023-04-04T20:11:09.714Z,3.97
2023-04-04T20:16:14.756Z,4.00
2023-04-04T20:21:21.861Z,4.13
2023-04-04T20:26:52.104Z,4.75
2023-04-04T20:31:57.450Z,4.20
2023-04-04T20:37:05.115Z,3.92
2023-04-04T20:42:34.235Z,3.85
2023-04-04T20:47:43.706Z,4.75
2023-04-04T20:52:51.148Z,3.95
2023-04-04T20:57:58.115Z,4.07
2023-04-04T21:03:02.980Z,3.60
2023-04-04T21:08:37.113Z,4.38
2023-04-04T21:13:41.816Z,4.97
2023-04-04T21:18:46.044Z,4.00
2023-04-04T21:23:53.678Z,4.60
2023-04-04T21:28:58.946Z,4.88
2023-04-04T21:34:10.667Z,4.88
2023-04-04T21:39:21.753Z,3.90
2023-04-04T21:44:25.627Z,4.68
2023-04-04T21:49:29.255Z,3.75
2023-04-04T21:54:34.186Z,4.32
2023-04-04T21:59:37.754Z,3.95
2023-04-04T22:04:41.317Z,4.22
2023-04-04T22:09:46.495Z,3.67
2023-04-04T22:14:51.230Z,4.43
2023-04-04T22:19:59.804Z,4.30
2023-04-04T22:25:06.940Z,5.85
2023-04-04T22:30:11.085Z,5.25
2023-04-04T22:35:14.514Z,5.95
2023-04-04T22:40:19.582Z,6.07
2023-04-04T22:45:23.364Z,6.13
2023-04-04T22:50:26.703Z,6.00
2023-04-04T22:55:31.660Z,6.53
2023-04-04T23:00:35.161Z,5.88
2023-04-04T23:05:38.648Z,6.00
2023-04-04T23:10:43.546Z,5.47
2023-04-04T23:15:47.226Z,5.45
2023-04-04T23:20:53.252Z,5.20
2023-04-04T23:25:58.361Z,4.88
2023-04-04T23:31:02.488Z,5.00
2023-04-04T23:36:06.479Z,4.60
2023-04-04T23:41:11.506Z,5.20
2023-04-04T23:46:15.424Z,4.80
2023-04-04T23:51:19.370Z,5.28
2023-04-04T23:56:24.467Z,5.15
